sensor_id;sensor_type;location;lat;lon;timestamp;P1;durP1;ratioP1;P2;durP2;ratioP2
76576;SDS011;65441;44.748;37.600;2024-02-21T00:01:26;17.17;;;6.72;;
76576;SDS011;65441;44.748;37.600;2024-02-21T00:03:56;15.73;;;5.88;;
76576;SDS011;65441;44.748;37.600;2024-02-21T00:06:24;21.80;;;5.78;;
76576;SDS011;65441;44.748;37.600;2024-02-21T00:08:52;13.10;;;4.85;;
76576;SDS011;65441;44.748;37.600;2024-02-21T00:11:20;11.35;;;4.15;;
76576;SDS011;65441;44.748;37.600;2024-02-21T00:13:49;9.90;;;4.00;;
76576;SDS011;65441;44.748;37.600;2024-02-21T00:16:17;8.30;;;4.05;;
76576;SDS011;65441;44.748;37.600;2024-02-21T00:18:45;10.05;;;3.90;;
76576;SDS011;65441;44.748;37.600;2024-02-21T00:21:15;14.57;;;4.15;;
76576;SDS011;65441;44.748;37.600;2024-02-21T00:23:44;12.90;;;3.58;;
76576;SDS011;65441;44.748;37.600;2024-02-21T00:26:13;10.00;;;3.42;;
76576;SDS011;65441;44.748;37.600;2024-02-21T00:28:41;10.82;;;4.38;;
76576;SDS011;65441;44.748;37.600;2024-02-21T00:31:10;10.82;;;3.78;;
76576;SDS011;65441;44.748;37.600;2024-02-21T00:33:38;10.73;;;3.97;;
76576;SDS011;65441;44.748;37.600;2024-02-21T00:36:07;10.52;;;4.38;;
76576;SDS011;65441;44.748;37.600;2024-02-21T00:38:37;15.75;;;4.55;;
76576;SDS011;65441;44.748;37.600;2024-02-21T00:41:05;20.92;;;5.05;;
76576;SDS011;65441;44.748;37.600;2024-02-21T00:43:33;12.70;;;4.28;;
76576;SDS011;65441;44.748;37.600;2024-02-21T00:46:02;13.68;;;4.45;;
76576;SDS011;65441;44.748;37.600;2024-02-21T00:48:30;10.13;;;3.67;;
76576;SDS011;65441;44.748;37.600;2024-02-21T00:50:58;9.30;;;3.50;;
76576;SDS011;65441;44.748;37.600;2024-02-21T00:53:26;8.80;;;3.70;;
76576;SDS011;65441;44.748;37.600;2024-02-21T00:55:56;9.75;;;4.38;;
76576;SDS011;65441;44.748;37.600;2024-02-21T00:58:24;8.00;;;3.60;;
76576;SDS011;65441;44.748;37.600;2024-02-21T01:00:52;10.07;;;4.00;;
76576;SDS011;65441;44.748;37.600;2024-02-21T01:03:20;9.38;;;4.25;;
76576;SDS011;65441;44.748;37.600;2024-02-21T01:05:48;11.43;;;3.90;;
76576;SDS011;65441;44.748;37.600;2024-02-21T01:08:16;8.63;;;3.80;;
76576;SDS011;65441;44.748;37.600;2024-02-21T01:10:45;12.35;;;3.45;;
76576;SDS011;65441;44.748;37.600;2024-02-21T01:13:14;9.75;;;3.15;;
76576;SDS011;65441;44.748;37.600;2024-02-21T01:15:42;9.32;;;4.10;;
76576;SDS011;65441;44.748;37.600;2024-02-21T01:18:11;11.50;;;4.15;;
76576;SDS011;65441;44.748;37.600;2024-02-21T01:20:39;11.82;;;4.03;;
76576;SDS011;65441;44.748;37.600;2024-02-21T01:23:07;12.00;;;4.13;;
76576;SDS011;65441;44.748;37.600;2024-02-21T01:25:35;9.75;;;3.80;;
76576;SDS011;65441;44.748;37.600;2024-02-21T01:28:03;11.18;;;4.07;;
76576;SDS011;65441;44.748;37.600;2024-02-21T01:30:33;11.23;;;3.80;;
76576;SDS011;65441;44.748;37.600;2024-02-21T01:33:02;12.32;;;4.03;;
76576;SDS011;65441;44.748;37.600;2024-02-21T01:35:30;8.55;;;3.85;;
76576;SDS011;65441;44.748;37.600;2024-02-21T01:37:58;12.73;;;4.22;;
76576;SDS011;65441;44.748;37.600;2024-02-21T01:40:27;10.77;;;4.50;;
76576;SDS011;65441;44.748;37.600;2024-02-21T01:42:55;10.13;;;3.90;;
76576;SDS011;65441;44.748;37.600;2024-02-21T01:45:24;10.80;;;4.22;;
76576;SDS011;65441;44.748;37.600;2024-02-21T01:47:54;11.52;;;3.60;;
76576;SDS011;65441;44.748;37.600;2024-02-21T01:50:22;12.68;;;4.45;;
76576;SDS011;65441;44.748;37.600;2024-02-21T01:52:51;11.23;;;4.22;;
76576;SDS011;65441;44.748;37.600;2024-02-21T01:55:19;10.57;;;3.92;;
76576;SDS011;65441;44.748;37.600;2024-02-21T01:57:48;11.38;;;3.90;;
76576;SDS011;65441;44.748;37.600;2024-02-21T02:00:16;11.48;;;4.43;;
76576;SDS011;65441;44.748;37.600;2024-02-21T02:02:46;9.57;;;4.03;;
76576;SDS011;65441;44.748;37.600;2024-02-21T02:05:16;9.18;;;3.95;;
76576;SDS011;65441;44.748;37.600;2024-02-21T02:07:47;8.13;;;3.42;;
76576;SDS011;65441;44.748;37.600;2024-02-21T02:10:15;9.00;;;3.97;;
76576;SDS011;65441;44.748;37.600;2024-02-21T02:12:43;12.18;;;4.10;;
76576;SDS011;65441;44.748;37.600;2024-02-21T02:15:11;12.95;;;4.22;;
76576;SDS011;65441;44.748;37.600;2024-02-21T02:17:39;8.57;;;3.53;;
76576;SDS011;65441;44.748;37.600;2024-02-21T02:20:08;12.88;;;5.00;;
76576;SDS011;65441;44.748;37.600;2024-02-21T02:22:38;10.38;;;3.70;;
76576;SDS011;65441;44.748;37.600;2024-02-21T02:25:10;11.93;;;4.70;;
76576;SDS011;65441;44.748;37.600;2024-02-21T02:27:41;10.25;;;3.95;;
76576;SDS011;65441;44.748;37.600;2024-02-21T02:30:11;11.02;;;4.18;;
76576;SDS011;65441;44.748;37.600;2024-02-21T02:32:42;11.45;;;4.60;;
76576;SDS011;65441;44.748;37.600;2024-02-21T02:35:12;10.63;;;4.28;;
76576;SDS011;65441;44.748;37.600;2024-02-21T02:37:40;9.27;;;3.13;;
76576;SDS011;65441;44.748;37.600;2024-02-21T02:42:44;11.43;;;4.28;;
76576;SDS011;65441;44.748;37.600;2024-02-21T02:45:13;9.57;;;3.80;;
76576;SDS011;65441;44.748;37.600;2024-02-21T02:47:41;14.60;;;4.20;;
76576;SDS011;65441;44.748;37.600;2024-02-21T02:50:09;13.90;;;4.80;;
76576;SDS011;65441;44.748;37.600;2024-02-21T02:52:38;11.82;;;4.50;;
76576;SDS011;65441;44.748;37.600;2024-02-21T02:55:07;10.35;;;3.92;;
76576;SDS011;65441;44.748;37.600;2024-02-21T02:57:36;13.77;;;5.18;;
76576;SDS011;65441;44.748;37.600;2024-02-21T03:00:05;11.25;;;3.97;;
76576;SDS011;65441;44.748;37.600;2024-02-21T03:02:34;11.85;;;4.30;;
76576;SDS011;65441;44.748;37.600;2024-02-21T03:05:03;11.77;;;5.07;;
76576;SDS011;65441;44.748;37.600;2024-02-21T03:07:40;13.95;;;4.32;;
76576;SDS011;65441;44.748;37.600;2024-02-21T03:10:09;12.18;;;4.75;;
76576;SDS011;65441;44.748;37.600;2024-02-21T03:12:39;12.85;;;4.22;;
76576;SDS011;65441;44.748;37.600;2024-02-21T03:15:08;17.38;;;5.63;;
76576;SDS011;65441;44.748;37.600;2024-02-21T03:17:36;20.08;;;6.85;;
76576;SDS011;65441;44.748;37.600;2024-02-21T03:20:05;13.07;;;4.78;;
76576;SDS011;65441;44.748;37.600;2024-02-21T03:22:36;14.50;;;4.68;;
76576;SDS011;65441;44.748;37.600;2024-02-21T03:25:05;15.25;;;5.82;;
76576;SDS011;65441;44.748;37.600;2024-02-21T03:27:34;14.95;;;5.63;;
76576;SDS011;65441;44.748;37.600;2024-02-21T03:30:04;16.88;;;5.63;;
76576;SDS011;65441;44.748;37.600;2024-02-21T03:32:33;16.30;;;6.38;;
76576;SDS011;65441;44.748;37.600;2024-02-21T03:35:01;15.00;;;6.45;;
76576;SDS011;65441;44.748;37.600;2024-02-21T03:37:30;20.25;;;7.90;;
76576;SDS011;65441;44.748;37.600;2024-02-21T03:39:58;24.35;;;10.15;;
76576;SDS011;65441;44.748;37.600;2024-02-21T03:42:26;23.20;;;9.75;;
76576;SDS011;65441;44.748;37.600;2024-02-21T03:44:56;14.38;;;6.10;;
76576;SDS011;65441;44.748;37.600;2024-02-21T03:47:25;18.60;;;6.28;;
76576;SDS011;65441;44.748;37.600;2024-02-21T03:49:54;18.10;;;7.32;;
76576;SDS011;65441;44.748;37.600;2024-02-21T03:52:22;18.83;;;6.38;;
76576;SDS011;65441;44.748;37.600;2024-02-21T03:54:51;19.42;;;7.28;;
76576;SDS011;65441;44.748;37.600;2024-02-21T03:57:21;15.85;;;6.43;;
76576;SDS011;65441;44.748;37.600;2024-02-21T03:59:50;18.20;;;5.95;;
76576;SDS011;65441;44.748;37.600;2024-02-21T04:02:19;18.75;;;5.97;;
76576;SDS011;65441;44.748;37.600;2024-02-21T04:04:48;17.35;;;6.97;;
76576;SDS011;65441;44.748;37.600;2024-02-21T04:07:16;28.38;;;6.35;;
76576;SDS011;65441;44.748;37.600;2024-02-21T04:09:45;17.63;;;6.30;;
76576;SDS011;65441;44.748;37.600;2024-02-21T04:12:13;16.55;;;5.97;;
76576;SDS011;65441;44.748;37.600;2024-02-21T04:14:41;19.05;;;6.25;;
76576;SDS011;65441;44.748;37.600;2024-02-21T04:17:09;16.20;;;5.75;;
76576;SDS011;65441;44.748;37.600;2024-02-21T04:19:37;17.70;;;6.43;;
76576;SDS011;65441;44.748;37.600;2024-02-21T04:22:07;20.00;;;7.55;;
76576;SDS011;65441;44.748;37.600;2024-02-21T04:24:35;14.63;;;6.10;;
76576;SDS011;65441;44.748;37.600;2024-02-21T04:27:03;16.75;;;6.13;;
76576;SDS011;65441;44.748;37.600;2024-02-21T04:29:32;20.25;;;6.25;;
76576;SDS011;65441;44.748;37.600;2024-02-21T04:32:01;15.50;;;5.63;;
76576;SDS011;65441;44.748;37.600;2024-02-21T04:34:30;16.88;;;5.53;;
76576;SDS011;65441;44.748;37.600;2024-02-21T04:36:58;17.73;;;5.72;;
76576;SDS011;65441;44.748;37.600;2024-02-21T04:39:28;15.35;;;6.22;;
76576;SDS011;65441;44.748;37.600;2024-02-21T04:41:56;15.93;;;5.55;;
76576;SDS011;65441;44.748;37.600;2024-02-21T04:44:25;13.35;;;4.93;;
76576;SDS011;65441;44.748;37.600;2024-02-21T04:46:53;17.13;;;5.63;;
76576;SDS011;65441;44.748;37.600;2024-02-21T04:49:21;16.73;;;5.55;;
76576;SDS011;65441;44.748;37.600;2024-02-21T04:51:49;19.05;;;6.55;;
76576;SDS011;65441;44.748;37.600;2024-02-21T04:54:17;19.92;;;6.43;;
76576;SDS011;65441;44.748;37.600;2024-02-21T04:56:47;18.35;;;6.60;;
76576;SDS011;65441;44.748;37.600;2024-02-21T04:59:15;15.23;;;5.78;;
76576;SDS011;65441;44.748;37.600;2024-02-21T05:01:43;15.15;;;5.47;;
76576;SDS011;65441;44.748;37.600;2024-02-21T05:06:39;18.35;;;6.10;;
76576;SDS011;65441;44.748;37.600;2024-02-21T05:09:08;18.50;;;6.28;;
76576;SDS011;65441;44.748;37.600;2024-02-21T05:11:37;15.38;;;5.45;;
76576;SDS011;65441;44.748;37.600;2024-02-21T05:14:06;15.82;;;6.25;;
76576;SDS011;65441;44.748;37.600;2024-02-21T05:16:34;18.27;;;6.45;;
76576;SDS011;65441;44.748;37.600;2024-02-21T05:19:03;14.52;;;5.90;;
76576;SDS011;65441;44.748;37.600;2024-02-21T05:21:31;17.15;;;6.40;;
76576;SDS011;65441;44.748;37.600;2024-02-21T05:26:28;17.52;;;6.60;;
76576;SDS011;65441;44.748;37.600;2024-02-21T05:28:56;17.73;;;6.18;;
76576;SDS011;65441;44.748;37.600;2024-02-21T05:31:26;17.23;;;6.43;;
76576;SDS011;65441;44.748;37.600;2024-02-21T05:34:21;15.45;;;5.97;;
76576;SDS011;65441;44.748;37.600;2024-02-21T05:36:50;20.02;;;6.47;;
76576;SDS011;65441;44.748;37.600;2024-02-21T05:39:18;23.50;;;7.20;;
76576;SDS011;65441;44.748;37.600;2024-02-21T05:41:48;17.17;;;6.68;;
76576;SDS011;65441;44.748;37.600;2024-02-21T05:44:18;17.67;;;5.85;;
76576;SDS011;65441;44.748;37.600;2024-02-21T05:46:49;18.65;;;5.75;;
76576;SDS011;65441;44.748;37.600;2024-02-21T05:49:17;18.10;;;5.78;;
76576;SDS011;65441;44.748;37.600;2024-02-21T05:51:45;17.33;;;6.00;;
76576;SDS011;65441;44.748;37.600;2024-02-21T05:54:13;15.82;;;6.15;;
76576;SDS011;65441;44.748;37.600;2024-02-21T05:56:43;16.08;;;5.95;;
76576;SDS011;65441;44.748;37.600;2024-02-21T05:59:12;20.98;;;6.18;;
76576;SDS011;65441;44.748;37.600;2024-02-21T06:01:40;17.00;;;6.28;;
76576;SDS011;65441;44.748;37.600;2024-02-21T06:04:10;15.52;;;5.95;;
76576;SDS011;65441;44.748;37.600;2024-02-21T06:06:38;16.55;;;5.13;;
76576;SDS011;65441;44.748;37.600;2024-02-21T06:09:06;18.15;;;6.75;;
76576;SDS011;65441;44.748;37.600;2024-02-21T06:11:34;19.08;;;5.82;;
76576;SDS011;65441;44.748;37.600;2024-02-21T06:14:03;14.25;;;5.40;;
76576;SDS011;65441;44.748;37.600;2024-02-21T06:16:31;13.70;;;5.10;;
76576;SDS011;65441;44.748;37.600;2024-02-21T06:19:00;12.88;;;5.18;;
76576;SDS011;65441;44.748;37.600;2024-02-21T06:21:30;12.80;;;5.22;;
76576;SDS011;65441;44.748;37.600;2024-02-21T06:23:58;11.10;;;4.75;;
76576;SDS011;65441;44.748;37.600;2024-02-21T06:26:27;16.77;;;5.00;;
76576;SDS011;65441;44.748;37.600;2024-02-21T06:28:55;15.98;;;5.28;;
76576;SDS011;65441;44.748;37.600;2024-02-21T06:31:23;13.63;;;4.72;;
76576;SDS011;65441;44.748;37.600;2024-02-21T06:33:51;21.85;;;6.03;;
76576;SDS011;65441;44.748;37.600;2024-02-21T06:36:19;14.57;;;4.68;;
76576;SDS011;65441;44.748;37.600;2024-02-21T06:38:49;10.75;;;4.30;;
76576;SDS011;65441;44.748;37.600;2024-02-21T06:41:17;11.45;;;4.45;;
76576;SDS011;65441;44.748;37.600;2024-02-21T06:43:49;14.00;;;4.20;;
76576;SDS011;65441;44.748;37.600;2024-02-21T06:46:24;12.23;;;4.60;;
76576;SDS011;65441;44.748;37.600;2024-02-21T06:48:52;15.50;;;4.47;;
76576;SDS011;65441;44.748;37.600;2024-02-21T06:51:22;16.48;;;4.57;;
76576;SDS011;65441;44.748;37.600;2024-02-21T06:53:52;21.65;;;5.00;;
76576;SDS011;65441;44.748;37.600;2024-02-21T06:56:20;13.07;;;4.35;;
76576;SDS011;65441;44.748;37.600;2024-02-21T06:58:52;11.27;;;4.65;;
76576;SDS011;65441;44.748;37.600;2024-02-21T07:01:20;17.33;;;6.32;;
76576;SDS011;65441;44.748;37.600;2024-02-21T07:03:49;12.85;;;5.07;;
76576;SDS011;65441;44.748;37.600;2024-02-21T07:06:17;17.02;;;5.93;;
76576;SDS011;65441;44.748;37.600;2024-02-21T07:08:45;15.23;;;5.18;;
76576;SDS011;65441;44.748;37.600;2024-02-21T07:11:15;20.92;;;5.72;;
76576;SDS011;65441;44.748;37.600;2024-02-21T07:13:43;17.15;;;5.25;;
76576;SDS011;65441;44.748;37.600;2024-02-21T07:16:11;13.93;;;4.93;;
76576;SDS011;65441;44.748;37.600;2024-02-21T07:18:39;14.45;;;4.35;;
76576;SDS011;65441;44.748;37.600;2024-02-21T07:21:07;14.82;;;4.70;;
76576;SDS011;65441;44.748;37.600;2024-02-21T07:23:35;17.05;;;4.18;;
76576;SDS011;65441;44.748;37.600;2024-02-21T07:26:04;12.93;;;3.63;;
76576;SDS011;65441;44.748;37.600;2024-02-21T07:28:33;11.10;;;3.45;;
76576;SDS011;65441;44.748;37.600;2024-02-21T07:31:02;11.43;;;3.78;;
76576;SDS011;65441;44.748;37.600;2024-02-21T07:33:31;11.38;;;3.72;;
76576;SDS011;65441;44.748;37.600;2024-02-21T07:35:59;11.10;;;3.15;;
76576;SDS011;65441;44.748;37.600;2024-02-21T07:38:27;10.90;;;2.97;;
76576;SDS011;65441;44.748;37.600;2024-02-21T07:40:55;7.68;;;2.92;;
76576;SDS011;65441;44.748;37.600;2024-02-21T07:43:23;11.32;;;4.45;;
76576;SDS011;65441;44.748;37.600;2024-02-21T07:45:54;10.70;;;3.60;;
76576;SDS011;65441;44.748;37.600;2024-02-21T07:48:22;13.32;;;4.45;;
76576;SDS011;65441;44.748;37.600;2024-02-21T07:50:52;13.13;;;3.22;;
76576;SDS011;65441;44.748;37.600;2024-02-21T07:53:20;12.10;;;3.50;;
76576;SDS011;65441;44.748;37.600;2024-02-21T07:55:48;11.60;;;3.75;;
76576;SDS011;65441;44.748;37.600;2024-02-21T07:58:17;10.77;;;3.05;;
76576;SDS011;65441;44.748;37.600;2024-02-21T08:00:45;9.82;;;3.00;;
76576;SDS011;65441;44.748;37.600;2024-02-21T08:03:15;7.63;;;2.75;;
76576;SDS011;65441;44.748;37.600;2024-02-21T08:05:43;14.68;;;3.05;;
76576;SDS011;65441;44.748;37.600;2024-02-21T08:08:12;7.72;;;2.75;;
76576;SDS011;65441;44.748;37.600;2024-02-21T08:10:44;7.10;;;2.90;;
76576;SDS011;65441;44.748;37.600;2024-02-21T08:13:12;7.40;;;2.88;;
76576;SDS011;65441;44.748;37.600;2024-02-21T08:15:40;7.85;;;2.97;;
76576;SDS011;65441;44.748;37.600;2024-02-21T08:18:08;9.35;;;2.97;;
76576;SDS011;65441;44.748;37.600;2024-02-21T08:20:38;7.85;;;2.85;;
76576;SDS011;65441;44.748;37.600;2024-02-21T08:23:06;8.75;;;3.08;;
76576;SDS011;65441;44.748;37.600;2024-02-21T08:25:35;9.82;;;3.50;;
76576;SDS011;65441;44.748;37.600;2024-02-21T08:28:03;8.25;;;3.05;;
76576;SDS011;65441;44.748;37.600;2024-02-21T08:30:32;9.05;;;3.13;;
76576;SDS011;65441;44.748;37.600;2024-02-21T08:33:00;8.80;;;3.08;;
76576;SDS011;65441;44.748;37.600;2024-02-21T08:35:29;7.32;;;2.92;;
76576;SDS011;65441;44.748;37.600;2024-02-21T08:37:59;8.48;;;3.25;;
76576;SDS011;65441;44.748;37.600;2024-02-21T08:40:27;8.00;;;3.40;;
76576;SDS011;65441;44.748;37.600;2024-02-21T08:42:55;14.88;;;4.10;;
76576;SDS011;65441;44.748;37.600;2024-02-21T08:45:23;14.15;;;3.80;;
76576;SDS011;65441;44.748;37.600;2024-02-21T08:47:51;8.43;;;3.00;;
76576;SDS011;65441;44.748;37.600;2024-02-21T08:50:20;9.07;;;3.40;;
76576;SDS011;65441;44.748;37.600;2024-02-21T08:52:48;9.38;;;3.30;;
76576;SDS011;65441;44.748;37.600;2024-02-21T08:55:17;9.45;;;3.85;;
76576;SDS011;65441;44.748;37.600;2024-02-21T08:57:46;7.35;;;2.92;;
76576;SDS011;65441;44.748;37.600;2024-02-21T09:00:14;8.07;;;3.35;;
76576;SDS011;65441;44.748;37.600;2024-02-21T09:02:43;10.35;;;3.15;;
76576;SDS011;65441;44.748;37.600;2024-02-21T09:05:11;9.80;;;3.08;;
76576;SDS011;65441;44.748;37.600;2024-02-21T09:07:39;7.43;;;2.72;;
76576;SDS011;65441;44.748;37.600;2024-02-21T09:10:08;8.07;;;3.10;;
76576;SDS011;65441;44.748;37.600;2024-02-21T09:12:38;7.53;;;2.65;;
76576;SDS011;65441;44.748;37.600;2024-02-21T09:15:06;9.93;;;3.03;;
76576;SDS011;65441;44.748;37.600;2024-02-21T09:17:35;7.80;;;3.05;;
76576;SDS011;65441;44.748;37.600;2024-02-21T09:20:03;6.88;;;2.95;;
76576;SDS011;65441;44.748;37.600;2024-02-21T09:22:33;6.72;;;2.50;;
76576;SDS011;65441;44.748;37.600;2024-02-21T09:25:01;7.50;;;2.55;;
76576;SDS011;65441;44.748;37.600;2024-02-21T09:27:30;7.55;;;2.67;;
76576;SDS011;65441;44.748;37.600;2024-02-21T09:30:01;6.03;;;1.92;;
76576;SDS011;65441;44.748;37.600;2024-02-21T09:32:30;5.35;;;2.20;;
76576;SDS011;65441;44.748;37.600;2024-02-21T09:34:59;5.70;;;1.92;;
76576;SDS011;65441;44.748;37.600;2024-02-21T09:37:27;5.95;;;2.35;;
76576;SDS011;65441;44.748;37.600;2024-02-21T09:39:55;5.93;;;2.40;;
76576;SDS011;65441;44.748;37.600;2024-02-21T09:42:26;5.60;;;1.85;;
76576;SDS011;65441;44.748;37.600;2024-02-21T09:45:07;5.93;;;1.88;;
76576;SDS011;65441;44.748;37.600;2024-02-21T09:47:40;7.47;;;2.20;;
76576;SDS011;65441;44.748;37.600;2024-02-21T09:50:18;4.85;;;1.67;;
76576;SDS011;65441;44.748;37.600;2024-02-21T09:52:47;6.32;;;2.10;;
76576;SDS011;65441;44.748;37.600;2024-02-21T09:55:16;5.82;;;2.05;;
76576;SDS011;65441;44.748;37.600;2024-02-21T09:57:45;5.47;;;1.98;;
76576;SDS011;65441;44.748;37.600;2024-02-21T10:00:16;7.15;;;1.80;;
76576;SDS011;65441;44.748;37.600;2024-02-21T10:02:47;4.88;;;1.58;;
76576;SDS011;65441;44.748;37.600;2024-02-21T10:05:17;4.78;;;1.30;;
76576;SDS011;65441;44.748;37.600;2024-02-21T10:07:45;4.80;;;1.58;;
76576;SDS011;65441;44.748;37.600;2024-02-21T10:10:16;4.13;;;1.45;;
76576;SDS011;65441;44.748;37.600;2024-02-21T10:12:47;3.55;;;1.23;;
76576;SDS011;65441;44.748;37.600;2024-02-21T10:15:21;5.00;;;1.33;;
76576;SDS011;65441;44.748;37.600;2024-02-21T10:17:50;3.95;;;1.35;;
76576;SDS011;65441;44.748;37.600;2024-02-21T10:20:26;3.33;;;1.10;;
76576;SDS011;65441;44.748;37.600;2024-02-21T10:23:00;5.43;;;2.22;;
76576;SDS011;65441;44.748;37.600;2024-02-21T10:25:29;5.20;;;1.23;;
76576;SDS011;65441;44.748;37.600;2024-02-21T10:27:58;4.07;;;1.65;;
76576;SDS011;65441;44.748;37.600;2024-02-21T10:30:27;4.97;;;1.20;;
76576;SDS011;65441;44.748;37.600;2024-02-21T10:32:55;5.05;;;1.60;;
76576;SDS011;65441;44.748;37.600;2024-02-21T10:35:27;3.45;;;1.20;;
76576;SDS011;65441;44.748;37.600;2024-02-21T10:37:56;3.78;;;1.20;;
76576;SDS011;65441;44.748;37.600;2024-02-21T10:40:25;4.85;;;1.60;;
76576;SDS011;65441;44.748;37.600;2024-02-21T10:42:56;5.63;;;1.30;;
76576;SDS011;65441;44.748;37.600;2024-02-21T10:45:29;3.90;;;1.08;;
76576;SDS011;65441;44.748;37.600;2024-02-21T10:48:01;3.92;;;1.23;;
76576;SDS011;65441;44.748;37.600;2024-02-21T10:50:44;5.38;;;1.63;;
76576;SDS011;65441;44.748;37.600;2024-02-21T10:53:24;5.60;;;1.73;;
76576;SDS011;65441;44.748;37.600;2024-02-21T10:56:06;5.28;;;1.55;;
76576;SDS011;65441;44.748;37.600;2024-02-21T10:58:43;5.47;;;1.38;;
76576;SDS011;65441;44.748;37.600;2024-02-21T11:01:13;3.78;;;1.33;;
76576;SDS011;65441;44.748;37.600;2024-02-21T11:03:44;4.80;;;1.30;;
76576;SDS011;65441;44.748;37.600;2024-02-21T11:06:14;4.90;;;1.30;;
76576;SDS011;65441;44.748;37.600;2024-02-21T11:08:44;4.07;;;1.38;;
76576;SDS011;65441;44.748;37.600;2024-02-21T11:11:12;6.03;;;1.52;;
76576;SDS011;65441;44.748;37.600;2024-02-21T11:13:45;4.85;;;1.40;;
76576;SDS011;65441;44.748;37.600;2024-02-21T11:16:22;5.45;;;1.23;;
76576;SDS011;65441;44.748;37.600;2024-02-21T11:18:50;4.30;;;1.30;;
76576;SDS011;65441;44.748;37.600;2024-02-21T11:21:18;3.45;;;1.10;;
76576;SDS011;65441;44.748;37.600;2024-02-21T11:23:54;4.82;;;1.80;;
76576;SDS011;65441;44.748;37.600;2024-02-21T11:26:23;3.72;;;1.48;;
76576;SDS011;65441;44.748;37.600;2024-02-21T11:28:57;3.15;;;0.93;;
76576;SDS011;65441;44.748;37.600;2024-02-21T11:31:27;4.32;;;1.52;;
76576;SDS011;65441;44.748;37.600;2024-02-21T11:34:05;6.15;;;1.10;;
76576;SDS011;65441;44.748;37.600;2024-02-21T11:36:36;4.57;;;1.58;;
76576;SDS011;65441;44.748;37.600;2024-02-21T11:39:17;3.08;;;1.00;;
76576;SDS011;65441;44.748;37.600;2024-02-21T11:42:00;4.30;;;1.00;;
76576;SDS011;65441;44.748;37.600;2024-02-21T11:44:30;6.22;;;1.30;;
76576;SDS011;65441;44.748;37.600;2024-02-21T11:47:00;5.75;;;1.38;;
76576;SDS011;65441;44.748;37.600;2024-02-21T11:49:29;3.75;;;1.05;;
76576;SDS011;65441;44.748;37.600;2024-02-21T11:51:58;3.75;;;1.02;;
76576;SDS011;65441;44.748;37.600;2024-02-21T11:54:27;3.28;;;1.10;;
76576;SDS011;65441;44.748;37.600;2024-02-21T11:56:55;3.85;;;1.13;;
76576;SDS011;65441;44.748;37.600;2024-02-21T11:59:24;3.58;;;0.98;;
76576;SDS011;65441;44.748;37.600;2024-02-21T12:01:52;5.35;;;1.20;;
76576;SDS011;65441;44.748;37.600;2024-02-21T12:04:22;2.75;;;0.85;;
76576;SDS011;65441;44.748;37.600;2024-02-21T12:06:51;2.72;;;1.00;;
76576;SDS011;65441;44.748;37.600;2024-02-21T12:09:22;2.80;;;1.00;;
76576;SDS011;65441;44.748;37.600;2024-02-21T12:11:57;4.10;;;1.15;;
76576;SDS011;65441;44.748;37.600;2024-02-21T12:14:28;4.22;;;1.38;;
76576;SDS011;65441;44.748;37.600;2024-02-21T12:16:57;3.25;;;1.10;;
76576;SDS011;65441;44.748;37.600;2024-02-21T12:19:31;4.15;;;1.13;;
76576;SDS011;65441;44.748;37.600;2024-02-21T12:22:00;4.90;;;1.38;;
76576;SDS011;65441;44.748;37.600;2024-02-21T12:24:28;5.22;;;1.38;;
76576;SDS011;65441;44.748;37.600;2024-02-21T12:26:56;3.95;;;1.42;;
76576;SDS011;65441;44.748;37.600;2024-02-21T12:29:25;4.78;;;1.55;;
76576;SDS011;65441;44.748;37.600;2024-02-21T12:31:54;5.10;;;1.40;;
76576;SDS011;65441;44.748;37.600;2024-02-21T12:34:23;5.03;;;1.48;;
76576;SDS011;65441;44.748;37.600;2024-02-21T12:36:54;6.13;;;1.70;;
76576;SDS011;65441;44.748;37.600;2024-02-21T12:39:22;7.65;;;1.50;;
76576;SDS011;65441;44.748;37.600;2024-02-21T12:41:50;5.00;;;1.55;;
76576;SDS011;65441;44.748;37.600;2024-02-21T12:44:18;5.45;;;1.80;;
76576;SDS011;65441;44.748;37.600;2024-02-21T12:46:47;4.88;;;1.63;;
76576;SDS011;65441;44.748;37.600;2024-02-21T12:49:18;4.82;;;1.67;;
76576;SDS011;65441;44.748;37.600;2024-02-21T12:51:46;8.55;;;1.98;;
76576;SDS011;65441;44.748;37.600;2024-02-21T12:54:16;4.88;;;1.92;;
76576;SDS011;65441;44.748;37.600;2024-02-21T12:56:44;6.45;;;2.00;;
76576;SDS011;65441;44.748;37.600;2024-02-21T12:59:12;5.47;;;1.70;;
76576;SDS011;65441;44.748;37.600;2024-02-21T13:01:40;7.45;;;1.92;;
76576;SDS011;65441;44.748;37.600;2024-02-21T13:04:08;5.40;;;1.55;;
76576;SDS011;65441;44.748;37.600;2024-02-21T13:06:37;5.22;;;1.85;;
76576;SDS011;65441;44.748;37.600;2024-02-21T13:09:06;3.10;;;1.15;;
76576;SDS011;65441;44.748;37.600;2024-02-21T13:11:38;5.75;;;1.52;;
76576;SDS011;65441;44.748;37.600;2024-02-21T13:14:07;5.15;;;1.33;;
76576;SDS011;65441;44.748;37.600;2024-02-21T13:16:35;5.88;;;1.25;;
76576;SDS011;65441;44.748;37.600;2024-02-21T13:19:05;6.38;;;1.85;;
76576;SDS011;65441;44.748;37.600;2024-02-21T13:21:34;3.97;;;1.40;;
76576;SDS011;65441;44.748;37.600;2024-02-21T13:24:02;4.53;;;1.60;;
76576;SDS011;65441;44.748;37.600;2024-02-21T13:26:30;6.43;;;1.70;;
76576;SDS011;65441;44.748;37.600;2024-02-21T13:29:00;7.38;;;1.92;;
76576;SDS011;65441;44.748;37.600;2024-02-21T13:31:28;5.75;;;1.85;;
76576;SDS011;65441;44.748;37.600;2024-02-21T13:33:56;7.35;;;1.48;;
76576;SDS011;65441;44.748;37.600;2024-02-21T13:36:25;5.20;;;1.38;;
76576;SDS011;65441;44.748;37.600;2024-02-21T13:38:53;5.65;;;1.70;;
76576;SDS011;65441;44.748;37.600;2024-02-21T13:41:21;4.90;;;1.33;;
76576;SDS011;65441;44.748;37.600;2024-02-21T13:43:49;4.82;;;1.40;;
76576;SDS011;65441;44.748;37.600;2024-02-21T13:46:19;4.53;;;1.38;;
76576;SDS011;65441;44.748;37.600;2024-02-21T13:48:48;4.70;;;1.58;;
76576;SDS011;65441;44.748;37.600;2024-02-21T13:51:16;4.80;;;1.23;;
76576;SDS011;65441;44.748;37.600;2024-02-21T13:53:46;7.60;;;1.60;;
76576;SDS011;65441;44.748;37.600;2024-02-21T13:56:14;5.38;;;1.67;;
76576;SDS011;65441;44.748;37.600;2024-02-21T13:58:43;4.88;;;1.60;;
76576;SDS011;65441;44.748;37.600;2024-02-21T14:01:11;5.90;;;1.63;;
76576;SDS011;65441;44.748;37.600;2024-02-21T14:03:41;4.28;;;1.40;;
76576;SDS011;65441;44.748;37.600;2024-02-21T14:06:09;4.55;;;1.38;;
76576;SDS011;65441;44.748;37.600;2024-02-21T14:08:38;4.25;;;1.50;;
76576;SDS011;65441;44.748;37.600;2024-02-21T14:11:06;4.90;;;1.85;;
76576;SDS011;65441;44.748;37.600;2024-02-21T14:13:35;5.03;;;1.70;;
76576;SDS011;65441;44.748;37.600;2024-02-21T14:16:03;8.80;;;2.20;;
76576;SDS011;65441;44.748;37.600;2024-02-21T14:18:40;6.97;;;1.90;;
76576;SDS011;65441;44.748;37.600;2024-02-21T14:21:09;6.25;;;2.20;;
76576;SDS011;65441;44.748;37.600;2024-02-21T14:23:37;6.38;;;2.83;;
76576;SDS011;65441;44.748;37.600;2024-02-21T14:26:06;5.95;;;2.10;;
76576;SDS011;65441;44.748;37.600;2024-02-21T14:28:34;8.38;;;2.00;;
76576;SDS011;65441;44.748;37.600;2024-02-21T14:31:02;6.25;;;2.25;;
76576;SDS011;65441;44.748;37.600;2024-02-21T14:33:33;6.35;;;2.00;;
76576;SDS011;65441;44.748;37.600;2024-02-21T14:36:03;4.97;;;1.83;;
76576;SDS011;65441;44.748;37.600;2024-02-21T14:38:33;4.45;;;1.60;;
76576;SDS011;65441;44.748;37.600;2024-02-21T14:41:02;7.00;;;2.00;;
76576;SDS011;65441;44.748;37.600;2024-02-21T14:43:30;5.15;;;1.83;;
76576;SDS011;65441;44.748;37.600;2024-02-21T14:45:58;6.18;;;1.95;;
76576;SDS011;65441;44.748;37.600;2024-02-21T14:48:28;10.27;;;2.40;;